createdAt,value
2023-04-27T00:01:44.194Z,4.90
2023-04-27T00:04:11.102Z,4.90
2023-04-27T00:06:38.032Z,4.90
2023-04-27T00:09:04.850Z,4.90
2023-04-27T00:11:31.867Z,4.90
2023-04-27T00:13:58.653Z,4.90
2023-04-27T00:16:25.668Z,4.90
2023-04-27T00:18:52.520Z,4.90
2023-04-27T00:21:19.341Z,4.90
2023-04-27T00:23:46.215Z,4.90
2023-04-27T00:26:12.940Z,4.80
2023-04-27T00:28:39.683Z,4.90
2023-04-27T00:31:06.550Z,4.80
2023-04-27T00:33:33.326Z,4.80
2023-04-27T00:36:03.830Z,4.80
2023-04-27T00:38:30.941Z,4.80
2023-04-27T00:41:05.080Z,4.80
2023-04-27T00:43:32.658Z,4.80
2023-04-27T00:46:00.960Z,4.80
2023-04-27T00:48:28.240Z,4.70
2023-04-27T00:50:55.053Z,4.70
2023-04-27T00:53:22.229Z,4.60
2023-04-27T00:55:48.986Z,4.70
2023-04-27T00:58:15.787Z,4.60
2023-04-27T01:00:42.648Z,4.60
2023-04-27T01:03:10.070Z,4.60
2023-04-27T01:05:38.052Z,4.60
2023-04-27T01:08:05.448Z,4.50
2023-04-27T01:10:32.151Z,4.40
2023-04-27T01:12:59.126Z,4.40
2023-04-27T01:15:26.043Z,4.40
2023-04-27T01:17:59.938Z,4.40
2023-04-27T01:20:30.309Z,4.30
2023-04-27T01:22:57.363Z,4.30
2023-04-27T01:25:24.617Z,4.30
2023-04-27T01:27:51.495Z,4.30
2023-04-27T01:30:18.397Z,4.30
2023-04-27T01:32:45.236Z,4.30
2023-04-27T01:35:12.041Z,4.40
2023-04-27T01:37:38.785Z,4.40
2023-04-27T01:40:06.654Z,4.40
2023-04-27T01:42:33.429Z,4.30
2023-04-27T01:45:00.744Z,4.30
2023-04-27T01:47:27.914Z,4.40
2023-04-27T01:49:54.755Z,4.50
2023-04-27T01:52:21.448Z,4.40
2023-04-27T01:54:48.129Z,4.50
2023-04-27T01:57:14.963Z,4.50
2023-04-27T01:59:41.718Z,4.40
2023-04-27T02:02:08.665Z,4.50
2023-04-27T02:04:36.706Z,4.50
2023-04-27T02:07:03.587Z,4.50
2023-04-27T02:09:30.319Z,4.50
2023-04-27T02:11:57.017Z,4.50
2023-04-27T02:14:23.761Z,4.50
2023-04-27T02:16:50.588Z,4.50
2023-04-27T02:19:17.265Z,4.50
2023-04-27T02:21:44.016Z,4.50
2023-04-27T02:24:10.796Z,4.50
2023-04-27T02:26:37.536Z,4.40
2023-04-27T02:29:04.257Z,4.40
2023-04-27T02:31:31.510Z,4.40
2023-04-27T02:33:58.231Z,4.40
2023-04-27T02:36:24.934Z,4.40
2023-04-27T02:38:51.694Z,4.30
2023-04-27T02:41:18.457Z,4.30
2023-04-27T02:43:46.819Z,4.30
2023-04-27T02:46:14.006Z,4.30
2023-04-27T02:48:40.913Z,4.30
2023-04-27T02:51:07.667Z,4.30
2023-04-27T02:53:34.402Z,4.30
2023-04-27T02:56:01.414Z,4.30
2023-04-27T02:58:28.114Z,4.30
2023-04-27T03:00:57.961Z,4.30
2023-04-27T03:03:24.861Z,4.40
2023-04-27T03:05:51.693Z,4.30
2023-04-27T03:08:18.513Z,4.30
2023-04-27T03:10:45.224Z,4.40
2023-04-27T03:13:12.008Z,4.40
2023-04-27T03:15:38.744Z,4.30
2023-04-27T03:18:06.196Z,4.30
2023-04-27T03:20:33.101Z,4.20
2023-04-27T03:22:59.816Z,4.20
2023-04-27T03:25:26.771Z,4.20
2023-04-27T03:27:53.455Z,4.10
2023-04-27T03:30:20.397Z,4.10
2023-04-27T03:32:47.888Z,4.10
2023-04-27T03:35:15.195Z,4.10
2023-04-27T03:37:41.963Z,4.10
2023-04-27T03:40:09.288Z,4.10
2023-04-27T03:42:35.993Z,4.20
2023-04-27T03:45:02.993Z,4.20
2023-04-27T03:47:29.831Z,4.20
2023-04-27T03:49:56.652Z,4.20
2023-04-27T03:52:23.402Z,4.20
2023-04-27T03:54:50.220Z,4.20
2023-04-27T03:57:16.890Z,4.20
2023-04-27T03:59:43.578Z,4.20
2023-04-27T04:02:11.806Z,4.20
2023-04-27T04:04:38.943Z,4.30
2023-04-27T04:07:05.976Z,4.30
2023-04-27T04:09:32.750Z,3.90
2023-04-27T04:11:59.449Z,4.30
2023-04-27T04:14:27.949Z,4.30
2023-04-27T04:16:54.718Z,4.30
2023-04-27T04:19:22.211Z,4.30
2023-04-27T04:21:49.136Z,4.20
2023-04-27T04:24:16.418Z,4.30
2023-04-27T04:26:43.117Z,4.30
2023-04-27T04:29:12.603Z,4.30
2023-04-27T04:31:40.053Z,4.30
2023-04-27T04:34:06.947Z,4.30
2023-04-27T04:36:33.724Z,4.30
2023-04-27T04:39:05.318Z,4.30
2023-04-27T04:41:32.403Z,4.40
2023-04-27T04:43:59.656Z,4.40
2023-04-27T04:46:26.464Z,4.40
2023-04-27T04:48:54.805Z,4.40
2023-04-27T04:51:21.806Z,4.50
2023-04-27T04:53:48.803Z,4.60
2023-04-27T04:56:16.892Z,4.60
2023-04-27T04:58:43.574Z,4.60
2023-04-27T05:01:10.870Z,4.70
2023-04-27T05:03:37.951Z,4.80
2023-04-27T05:06:05.115Z,4.90
2023-04-27T05:08:31.939Z,5.00
2023-04-27T05:10:58.781Z,5.10
2023-04-27T05:13:25.737Z,5.20
2023-04-27T05:15:52.693Z,5.30
2023-04-27T05:18:19.742Z,5.30
2023-04-27T05:20:46.575Z,5.40
2023-04-27T05:23:13.373Z,5.60
2023-04-27T05:25:42.923Z,5.70
2023-04-27T05:28:10.748Z,5.80
2023-04-27T05:30:38.092Z,5.90
2023-04-27T05:33:05.427Z,6.00
2023-04-27T05:35:32.912Z,6.10
2023-04-27T05:38:00.269Z,6.20
2023-04-27T05:40:27.565Z,6.20
2023-04-27T05:42:54.343Z,6.30
2023-04-27T05:45:21.714Z,6.40
2023-04-27T05:47:48.477Z,6.40
2023-04-27T05:50:15.517Z,6.50
2023-04-27T05:52:42.346Z,6.50
2023-04-27T05:55:09.380Z,6.60
2023-04-27T05:57:36.130Z,6.70
2023-04-27T06:00:08.542Z,6.70
2023-04-27T06:02:35.604Z,6.70
2023-04-27T06:05:02.526Z,6.80
2023-04-27T06:07:29.300Z,6.90
2023-04-27T06:09:56.078Z,7.00
2023-04-27T06:12:22.742Z,7.30
2023-04-27T06:14:49.478Z,7.40
2023-04-27T06:17:16.194Z,7.50
2023-04-27T06:19:42.863Z,7.70
2023-04-27T06:22:11.624Z,7.60
2023-04-27T06:24:38.580Z,7.60
2023-04-27T06:27:06.771Z,7.50
2023-04-27T06:29:33.477Z,7.60
2023-04-27T06:32:00.370Z,7.60
2023-04-27T06:34:27.135Z,7.80
2023-04-27T06:36:53.809Z,7.90
2023-04-27T06:39:20.477Z,8.20
2023-04-27T06:41:47.141Z,8.50
2023-04-27T06:44:13.821Z,8.70
2023-04-27T06:46:40.545Z,9.00
2023-04-27T06:49:07.341Z,9.50
2023-04-27T06:51:34.228Z,9.70
2023-04-27T06:54:00.937Z,9.90
2023-04-27T06:56:27.620Z,10.20
2023-04-27T06:58:54.312Z,10.50
2023-04-27T07:01:21.152Z,10.80
2023-04-27T07:03:47.998Z,11.20
2023-04-27T07:06:14.814Z,11.20
2023-04-27T07:08:41.970Z,11.50
2023-04-27T07:11:08.865Z,11.60
2023-04-27T07:13:35.605Z,11.90
2023-04-27T07:16:02.318Z,12.10
2023-04-27T07:18:29.112Z,12.30
2023-04-27T07:20:57.930Z,12.70
2023-04-27T07:23:24.673Z,13.00
2023-04-27T07:25:52.048Z,13.10
2023-04-27T07:28:18.832Z,13.10
2023-04-27T07:30:45.763Z,13.00
2023-04-27T07:33:13.069Z,12.90
2023-04-27T07:35:39.837Z,12.90
2023-04-27T07:38:07.522Z,12.90
2023-04-27T07:40:34.557Z,13.40
2023-04-27T07:43:01.297Z,13.80
2023-04-27T07:45:32.295Z,14.20
2023-04-27T07:48:00.285Z,14.60
2023-04-27T07:50:28.448Z,14.70
2023-04-27T07:52:55.360Z,14.20
2023-04-27T07:55:23.566Z,14.50
2023-04-27T07:57:52.218Z,15.50
2023-04-27T08:00:19.401Z,16.30
2023-04-27T08:02:47.790Z,17.00
2023-04-27T08:05:15.213Z,17.20
2023-04-27T08:07:44.928Z,17.40
2023-04-27T08:10:12.236Z,17.90
2023-04-27T08:12:39.049Z,19.00
2023-04-27T08:15:07.494Z,19.20
2023-04-27T08:17:35.150Z,19.60
2023-04-27T08:20:01.887Z,20.30
2023-04-27T08:22:28.674Z,20.70
2023-04-27T08:24:55.796Z,21.20
2023-04-27T08:27:22.609Z,21.80
2023-04-27T08:29:49.563Z,23.70
2023-04-27T08:32:16.684Z,25.40
2023-04-27T08:34:44.947Z,27.60
2023-04-27T08:37:11.741Z,28.20
2023-04-27T08:39:38.851Z,28.00
2023-04-27T08:42:12.366Z,28.60
2023-04-27T08:44:40.358Z,29.60
2023-04-27T08:47:08.795Z,29.60
2023-04-27T08:49:38.280Z,28.60
2023-04-27T08:52:12.724Z,27.90
2023-04-27T08:54:39.557Z,26.30
2023-04-27T08:57:13.463Z,26.30
2023-04-27T08:59:46.439Z,25.90
2023-04-27T09:02:20.684Z,26.50
2023-04-27T09:04:47.795Z,28.00
2023-04-27T09:07:18.414Z,29.30
2023-04-27T09:09:45.632Z,30.10
2023-04-27T09:12:21.298Z,30.70
2023-04-27T09:15:08.486Z,30.60
2023-04-27T09:17:38.628Z,30.40
2023-04-27T09:20:15.171Z,30.30
2023-04-27T09:22:46.114Z,30.70
2023-04-27T09:25:27.568Z,30.80
2023-04-27T09:27:55.057Z,30.10
2023-04-27T09:30:22.122Z,30.10
2023-04-27T09:32:53.675Z,30.60
2023-04-27T09:35:23.290Z,30.10
2023-04-27T09:37:52.931Z,29.90
2023-04-27T09:40:23.566Z,29.80
2023-04-27T09:42:51.267Z,30.00
2023-04-27T09:45:19.603Z,29.90
2023-04-27T09:47:46.807Z,30.40
2023-04-27T09:50:14.240Z,31.60
2023-04-27T09:52:41.325Z,32.20
2023-04-27T09:55:16.173Z,32.60
2023-04-27T09:57:55.703Z,33.30
2023-04-27T10:00:42.973Z,32.00
2023-04-27T10:03:24.024Z,32.40
2023-04-27T10:06:26.826Z,33.00
2023-04-27T10:08:53.679Z,33.50
2023-04-27T10:11:20.447Z,32.60
2023-04-27T10:13:55.126Z,33.10
2023-04-27T10:16:22.431Z,33.70
2023-04-27T10:18:55.751Z,33.70
2023-04-27T10:21:23.779Z,33.10
2023-04-27T10:23:52.030Z,33.30
2023-04-27T10:26:28.339Z,34.50
2023-04-27T10:29:09.088Z,35.20
2023-04-27T10:31:36.180Z,34.40
2023-04-27T10:34:08.512Z,32.90
2023-04-27T10:36:40.846Z,32.40
2023-04-27T10:39:16.890Z,32.50
2023-04-27T10:41:54.094Z,32.90
2023-04-27T10:44:25.063Z,32.20
2023-04-27T10:46:53.310Z,31.60
2023-04-27T10:49:20.458Z,31.20
2023-04-27T10:51:51.424Z,30.30
2023-04-27T10:54:18.822Z,29.40
2023-04-27T10:56:46.011Z,29.90
2023-04-27T10:59:13.205Z,29.30
2023-04-27T11:01:40.421Z,27.60
2023-04-27T11:04:07.225Z,25.70
2023-04-27T11:06:43.407Z,25.10
2023-04-27T11:09:11.189Z,25.80
2023-04-27T11:11:37.989Z,26.20
2023-04-27T11:14:04.766Z,24.40
2023-04-27T11:16:33.054Z,23.50
2023-04-27T11:19:05.413Z,23.30
2023-04-27T11:21:32.449Z,22.50
2023-04-27T11:24:09.940Z,22.10
2023-04-27T11:26:36.896Z,21.90
2023-04-27T11:29:14.032Z,21.70
2023-04-27T11:31:43.811Z,22.10
2023-04-27T11:34:16.458Z,23.00
2023-04-27T11:36:43.383Z,23.50
2023-04-27T11:39:18.584Z,23.60
2023-04-27T11:41:46.562Z,23.90
2023-04-27T11:44:13.510Z,24.20
2023-04-27T11:46:44.514Z,23.80
2023-04-27T11:49:12.428Z,23.60
2023-04-27T11:51:40.572Z,22.70
2023-04-27T11:54:07.983Z,22.90
2023-04-27T11:56:39.456Z,23.30
2023-04-27T11:59:06.496Z,23.60
2023-04-27T12:01:37.953Z,24.40
2023-04-27T12:04:07.842Z,24.50
2023-04-27T12:06:34.772Z,25.20
2023-04-27T12:09:01.717Z,26.20
2023-04-27T12:11:28.538Z,25.90
2023-04-27T12:13:55.624Z,26.40
2023-04-27T12:16:22.987Z,27.00
2023-04-27T12:18:52.727Z,26.80
2023-04-27T12:21:19.717Z,25.70
2023-04-27T12:23:46.515Z,25.10
2023-04-27T12:26:15.179Z,25.60
2023-04-27T12:28:42.265Z,25.80
2023-04-27T12:31:09.150Z,26.00
2023-04-27T12:33:36.158Z,25.60
2023-04-27T12:36:02.990Z,25.30
2023-04-27T12:38:29.748Z,25.20
2023-04-27T12:40:56.741Z,24.50
2023-04-27T12:43:23.466Z,24.80
2023-04-27T12:45:50.597Z,24.80
2023-04-27T12:48:17.779Z,24.60
2023-04-27T12:50:44.733Z,24.30
2023-04-27T12:53:11.727Z,23.60
2023-04-27T12:55:38.389Z,22.70
2023-04-27T12:58:05.125Z,22.10
2023-04-27T13:00:32.176Z,21.70
2023-04-27T13:02:59.056Z,21.50
2023-04-27T13:05:26.484Z,21.10
2023-04-27T13:07:53.482Z,20.70
2023-04-27T13:10:20.273Z,20.50
2023-04-27T13:12:47.090Z,20.40
2023-04-27T13:15:13.873Z,20.40
2023-04-27T13:17:43.028Z,20.30
2023-04-27T13:20:10.949Z,20.30
2023-04-27T13:22:37.744Z,20.30
2023-04-27T13:25:06.020Z,20.20
2023-04-27T13:27:32.753Z,20.10
2023-04-27T13:29:59.522Z,20.10
2023-04-27T13:32:26.794Z,20.20
2023-04-27T13:34:53.516Z,20.10
2023-04-27T13:37:20.234Z,20.10
2023-04-27T13:39:46.935Z,20.10
2023-04-27T13:42:13.668Z,20.00
2023-04-27T13:44:40.613Z,19.90
2023-04-27T13:47:08.077Z,19.70
2023-04-27T13:49:34.865Z,19.90
2023-04-27T13:52:01.898Z,19.70
2023-04-27T13:54:29.121Z,19.50
2023-04-27T13:56:56.213Z,19.40
2023-04-27T13:59:22.999Z,19.30
2023-04-27T14:01:51.349Z,19.10
2023-04-27T14:04:18.176Z,19.40
2023-04-27T14:06:45.878Z,19.30
2023-04-27T14:09:12.777Z,19.40
2023-04-27T14:11:52.471Z,19.10
2023-04-27T14:14:23.175Z,19.40
2023-04-27T14:16:51.408Z,19.40
2023-04-27T14:19:20.694Z,19.30
2023-04-27T14:21:49.326Z,19.10
2023-04-27T14:24:16.729Z,19.30
2023-04-27T14:26:43.974Z,19.30
2023-04-27T14:29:12.772Z,19.40
2023-04-27T14:31:40.508Z,20.00
2023-04-27T14:34:08.312Z,20.50
2023-04-27T14:36:35.858Z,20.70
2023-04-27T14:39:03.038Z,20.80
2023-04-27T14:41:30.497Z,20.80
2023-04-27T14:43:57.217Z,20.70
2023-04-27T14:46:24.064Z,20.40
2023-04-27T14:48:51.457Z,19.70
2023-04-27T14:51:18.388Z,19.40
2023-04-27T14:53:45.086Z,19.30
2023-04-27T14:56:12.417Z,19.00
2023-04-27T14:58:39.170Z,19.30
2023-04-27T15:01:06.930Z,19.70
2023-04-27T15:03:34.281Z,19.80
2023-04-27T15:06:01.821Z,20.10
2023-04-27T15:08:30.222Z,20.50
2023-04-27T15:10:59.938Z,20.50
2023-04-27T15:13:27.652Z,20.40
2023-04-27T15:15:58.571Z,20.20
2023-04-27T15:18:25.939Z,20.10
2023-04-27T15:20:54.132Z,20.00
2023-04-27T15:23:22.149Z,20.00
2023-04-27T15:25:50.194Z,19.90
2023-04-27T15:28:18.085Z,19.80
2023-04-27T15:30:45.698Z,19.50
2023-04-27T15:33:14.009Z,19.30
2023-04-27T15:35:41.176Z,19.00
2023-04-27T15:38:09.692Z,18.60
2023-04-27T15:40:36.628Z,18.50
2023-04-27T15:43:03.457Z,18.40
2023-04-27T15:45:30.611Z,18.30
2023-04-27T15:47:57.826Z,18.30
2023-04-27T15:50:24.718Z,18.20
2023-04-27T15:52:52.232Z,18.10
2023-04-27T15:55:19.140Z,18.00
2023-04-27T15:57:46.919Z,17.90
2023-04-27T16:00:16.306Z,17.80
2023-04-27T16:02:43.898Z,17.80
2023-04-27T16:05:11.216Z,17.70
2023-04-27T16:07:42.051Z,17.50
2023-04-27T16:10:09.445Z,17.40
2023-04-27T16:12:36.717Z,17.30
2023-04-27T16:15:04.534Z,17.30
2023-04-27T16:17:33.591Z,17.30
2023-04-27T16:20:00.365Z,17.30
2023-04-27T16:22:28.017Z,17.20
2023-04-27T16:24:54.777Z,17.10
2023-04-27T16:27:22.660Z,17.00
2023-04-27T16:29:49.658Z,16.90
2023-04-27T16:32:17.518Z,16.80
2023-04-27T16:34:44.306Z,16.70
2023-04-27T16:37:11.567Z,16.60
2023-04-27T16:39:38.590Z,16.40
2023-04-27T16:42:05.645Z,16.40
2023-04-27T16:44:32.379Z,16.30
2023-04-27T16:46:59.157Z,16.20
2023-04-27T16:49:25.937Z,16.10
2023-04-27T16:51:54.360Z,16.00
2023-04-27T16:54:21.572Z,15.90
2023-04-27T16:56:50.076Z,15.90
2023-04-27T16:59:17.152Z,15.90
2023-04-27T17:01:44.159Z,15.90
2023-04-27T17:04:11.458Z,15.80
2023-04-27T17:06:39.201Z,15.80
2023-04-27T17:09:06.087Z,15.80
2023-04-27T17:11:32.899Z,15.70
2023-04-27T17:13:59.843Z,15.70
2023-04-27T17:16:27.226Z,15.70
2023-04-27T17:18:56.201Z,15.60
2023-04-27T17:21:25.070Z,15.60
2023-04-27T17:23:53.172Z,15.50
2023-04-27T17:26:21.524Z,15.40
2023-04-27T17:28:49.247Z,15.40
2023-04-27T17:31:17.502Z,15.30
2023-04-27T17:33:45.920Z,15.20
2023-04-27T17:36:12.991Z,15.10
2023-04-27T17:38:39.812Z,15.00
2023-04-27T17:41:06.847Z,14.80
2023-04-27T17:43:33.707Z,14.70
2023-04-27T17:46:00.683Z,14.60
2023-04-27T17:48:27.462Z,14.50
2023-04-27T17:50:54.401Z,14.40
2023-04-27T17:53:21.654Z,14.40
2023-04-27T17:55:48.463Z,14.20
2023-04-27T17:58:17.106Z,14.10
2023-04-27T18:00:45.009Z,14.00
2023-04-27T18:03:12.339Z,13.80
2023-04-27T18:05:39.223Z,13.70
2023-04-27T18:08:06.223Z,14.00
2023-04-27T18:10:33.184Z,13.40
2023-04-27T18:13:01.058Z,13.20
2023-04-27T18:15:27.917Z,13.10
2023-04-27T18:17:55.002Z,12.90
2023-04-27T18:20:23.407Z,12.70
2023-04-27T18:22:50.586Z,12.50
2023-04-27T18:25:17.400Z,12.40
2023-04-27T18:27:45.195Z,12.20
2023-04-27T18:30:12.217Z,12.00
2023-04-27T18:32:39.069Z,11.90
2023-04-27T18:35:06.478Z,11.80
2023-04-27T18:37:33.277Z,11.60
2023-04-27T18:40:00.074Z,11.50
2023-04-27T18:42:26.869Z,11.30
2023-04-27T18:45:00.479Z,11.20
2023-04-27T18:47:28.678Z,11.10
2023-04-27T18:49:55.406Z,10.90
2023-04-27T18:52:22.143Z,10.90
2023-04-27T18:54:48.852Z,10.80
2023-04-27T18:57:15.605Z,10.70
2023-04-27T18:59:42.560Z,10.70
2023-04-27T19:02:09.409Z,10.60
2023-04-27T19:04:36.273Z,10.40
2023-04-27T19:07:03.380Z,10.40
2023-04-27T19:09:30.127Z,10.20
2023-04-27T19:12:02.764Z,10.10
2023-04-27T19:14:30.751Z,10.00
2023-04-27T19:16:57.588Z,9.80
2023-04-27T19:19:24.988Z,9.70
2023-04-27T19:21:51.924Z,9.60
2023-04-27T19:24:18.698Z,9.50
2023-04-27T19:26:46.755Z,9.50
2023-04-27T19:29:13.917Z,9.50
2023-04-27T19:31:40.921Z,9.50
2023-04-27T19:34:07.726Z,9.40
2023-04-27T19:36:34.524Z,9.20
2023-04-27T19:39:01.307Z,9.20
2023-04-27T19:41:28.346Z,9.10
2023-04-27T19:43:55.445Z,9.00
2023-04-27T19:46:22.221Z,8.90
2023-04-27T19:48:48.968Z,8.80
2023-04-27T19:51:15.721Z,8.70
2023-04-27T19:53:43.592Z,8.70
2023-04-27T19:56:10.540Z,8.80
2023-04-27T19:58:37.371Z,8.70
2023-04-27T20:01:04.150Z,8.80
2023-04-27T20:03:31.086Z,8.70
2023-04-27T20:05:58.313Z,8.60
2023-04-27T20:08:25.215Z,8.50
2023-04-27T20:10:52.129Z,8.50
2023-04-27T20:13:18.963Z,8.50
2023-04-27T20:15:46.548Z,8.50
2023-04-27T20:18:13.751Z,8.50
2023-04-27T20:20:42.001Z,8.50
2023-04-27T20:23:08.829Z,8.40
2023-04-27T20:25:35.537Z,8.40
2023-04-27T20:28:02.370Z,8.40
2023-04-27T20:30:29.254Z,8.30
2023-04-27T20:32:56.527Z,8.20
2023-04-27T20:35:24.201Z,8.20
2023-04-27T20:37:52.045Z,8.20
2023-04-27T20:40:19.005Z,8.10
2023-04-27T20:42:46.281Z,8.10
2023-04-27T20:45:13.261Z,8.00
2023-04-27T20:47:40.383Z,7.90
2023-04-27T20:50:09.047Z,7.90
2023-04-27T20:52:35.978Z,7.90
2023-04-27T20:55:03.724Z,7.90
2023-04-27T20:57:30.516Z,8.00
2023-04-27T20:59:57.371Z,8.00
2023-04-27T21:02:24.129Z,7.90
2023-04-27T21:04:51.058Z,7.80
2023-04-27T21:07:17.937Z,7.70
2023-04-27T21:09:44.603Z,7.70
2023-04-27T21:12:14.320Z,7.60
2023-04-27T21:14:41.126Z,7.60
2023-04-27T21:17:07.921Z,7.60
2023-04-27T21:19:34.650Z,7.50
2023-04-27T21:22:01.430Z,7.50
2023-04-27T21:24:28.169Z,7.50
2023-04-27T21:26:54.837Z,7.40
2023-04-27T21:29:21.605Z,7.50
2023-04-27T21:31:48.295Z,7.50
2023-04-27T21:34:15.228Z,7.50
2023-04-27T21:36:42.110Z,7.50
2023-04-27T21:39:08.807Z,7.60
2023-04-27T21:41:35.733Z,7.70
2023-04-27T21:44:02.551Z,7.80
2023-04-27T21:46:29.397Z,7.90
2023-04-27T21:48:56.107Z,7.90
2023-04-27T21:51:22.834Z,7.90
2023-04-27T21:53:49.577Z,8.00
2023-04-27T21:56:16.268Z,8.00
2023-04-27T21:58:42.966Z,8.00
2023-04-27T22:01:11.186Z,8.00
2023-04-27T22:03:38.274Z,8.00
2023-04-27T22:06:06.279Z,8.00
2023-04-27T22:08:32.998Z,8.00
2023-04-27T22:10:59.753Z,7.90
2023-04-27T22:13:26.467Z,8.00
2023-04-27T22:15:53.230Z,8.00
2023-04-27T22:18:20.005Z,8.00
2023-04-27T22:20:47.288Z,8.00
2023-04-27T22:23:13.966Z,8.00
2023-04-27T22:25:42.808Z,8.00
2023-04-27T22:28:10.849Z,8.00
2023-04-27T22:30:38.683Z,7.90
2023-04-27T22:33:05.450Z,7.90
2023-04-27T22:35:33.530Z,7.80
2023-04-27T22:38:00.506Z,7.80
2023-04-27T22:40:27.201Z,7.70
2023-04-27T22:42:55.080Z,7.70
2023-04-27T22:45:22.722Z,7.70
2023-04-27T22:47:49.670Z,7.70
2023-04-27T22:50:16.853Z,7.70
2023-04-27T22:52:43.946Z,7.70
2023-04-27T22:55:12.077Z,7.70
2023-04-27T22:57:39.463Z,7.70
2023-04-27T23:00:09.009Z,7.70
2023-04-27T23:02:36.181Z,7.70
2023-04-27T23:05:03.800Z,7.80
2023-04-27T23:07:30.621Z,7.70
2023-04-27T23:09:57.382Z,7.70
2023-04-27T23:12:26.756Z,7.80
2023-04-27T23:14:53.502Z,7.70
2023-04-27T23:17:22.712Z,7.80
2023-04-27T23:19:49.730Z,7.80
2023-04-27T23:22:16.621Z,7.80
2023-04-27T23:24:43.279Z,7.70
2023-04-27T23:27:09.985Z,7.70
2023-04-27T23:29:36.725Z,7.70
2023-04-27T23:32:04.348Z,7.60
2023-04-27T23:34:34.078Z,7.60
2023-04-27T23:37:00.996Z,7.50
2023-04-27T23:39:28.538Z,7.50
2023-04-27T23:41:55.305Z,7.40
2023-04-27T23:44:22.231Z,7.40
2023-04-27T23:46:49.054Z,7.40
2023-04-27T23:49:15.884Z,7.40
2023-04-27T23:51:42.629Z,7.40
2023-04-27T23:54:09.319Z,7.40
2023-04-27T23:56:36.607Z,7.40
2023-04-27T23:59:03.517Z,7.40
